sensor_id;sensor_type;location;lat;lon;timestamp;P1;durP1;ratioP1;P2;durP2;ratioP2
80175;SDS011;69501;42.124;24.722;2023-04-24T00:00:34;7.32;;;6.30;;
80175;SDS011;69501;42.124;24.722;2023-04-24T00:03:00;8.25;;;6.50;;
80175;SDS011;69501;42.124;24.722;2023-04-24T00:05:28;8.10;;;6.57;;
80175;SDS011;69501;42.124;24.722;2023-04-24T00:07:53;7.82;;;5.75;;
80175;SDS011;69501;42.124;24.722;2023-04-24T00:10:20;11.52;;;7.00;;
80175;SDS011;69501;42.124;24.722;2023-04-24T00:12:46;7.18;;;6.47;;
80175;SDS011;69501;42.124;24.722;2023-04-24T00:15:12;8.15;;;6.85;;
80175;SDS011;69501;42.124;24.722;2023-04-24T00:17:37;7.32;;;6.43;;
80175;SDS011;69501;42.124;24.722;2023-04-24T00:20:03;8.20;;;6.25;;
80175;SDS011;69501;42.124;24.722;2023-04-24T00:22:32;8.02;;;6.97;;
80175;SDS011;69501;42.124;24.722;2023-04-24T00:24:57;7.88;;;7.13;;
80175;SDS011;69501;42.124;24.722;2023-04-24T00:27:23;7.47;;;6.72;;
80175;SDS011;69501;42.124;24.722;2023-04-24T00:29:49;8.52;;;6.95;;
80175;SDS011;69501;42.124;24.722;2023-04-24T00:32:15;9.18;;;6.53;;
80175;SDS011;69501;42.124;24.722;2023-04-24T00:34:40;10.85;;;7.55;;
80175;SDS011;69501;42.124;24.722;2023-04-24T00:37:06;9.45;;;7.72;;
80175;SDS011;69501;42.124;24.722;2023-04-24T00:39:32;9.23;;;7.78;;
80175;SDS011;69501;42.124;24.722;2023-04-24T00:41:58;10.23;;;8.25;;
80175;SDS011;69501;42.124;24.722;2023-04-24T00:44:24;8.77;;;7.90;;
80175;SDS011;69501;42.124;24.722;2023-04-24T00:46:49;7.60;;;6.90;;
80175;SDS011;69501;42.124;24.722;2023-04-24T00:49:19;8.52;;;7.68;;
80175;SDS011;69501;42.124;24.722;2023-04-24T00:51:45;8.07;;;7.30;;
80175;SDS011;69501;42.124;24.722;2023-04-24T00:54:12;7.68;;;7.07;;
80175;SDS011;69501;42.124;24.722;2023-04-24T00:56:38;7.72;;;7.00;;
80175;SDS011;69501;42.124;24.722;2023-04-24T00:59:05;7.50;;;6.75;;
80175;SDS011;69501;42.124;24.722;2023-04-24T01:01:31;7.72;;;6.97;;
80175;SDS011;69501;42.124;24.722;2023-04-24T01:03:57;6.95;;;6.50;;
80175;SDS011;69501;42.124;24.722;2023-04-24T01:06:23;9.57;;;7.35;;
80175;SDS011;69501;42.124;24.722;2023-04-24T01:08:53;7.20;;;6.60;;
80175;SDS011;69501;42.124;24.722;2023-04-24T01:11:21;8.27;;;7.13;;
80175;SDS011;69501;42.124;24.722;2023-04-24T01:13:47;7.38;;;6.82;;
80175;SDS011;69501;42.124;24.722;2023-04-24T01:16:13;7.38;;;6.57;;
80175;SDS011;69501;42.124;24.722;2023-04-24T01:18:42;7.07;;;6.47;;
80175;SDS011;69501;42.124;24.722;2023-04-24T01:21:08;7.78;;;7.07;;
80175;SDS011;69501;42.124;24.722;2023-04-24T01:23:35;8.50;;;7.43;;
80175;SDS011;69501;42.124;24.722;2023-04-24T01:26:01;8.25;;;7.30;;
80175;SDS011;69501;42.124;24.722;2023-04-24T01:28:27;11.85;;;9.32;;
80175;SDS011;69501;42.124;24.722;2023-04-24T01:30:53;9.25;;;8.32;;
80175;SDS011;69501;42.124;24.722;2023-04-24T01:33:20;10.70;;;9.32;;
80175;SDS011;69501;42.124;24.722;2023-04-24T01:35:46;9.35;;;8.50;;
80175;SDS011;69501;42.124;24.722;2023-04-24T01:38:13;9.48;;;8.50;;
80175;SDS011;69501;42.124;24.722;2023-04-24T01:40:38;9.85;;;7.78;;
80175;SDS011;69501;42.124;24.722;2023-04-24T01:43:04;8.27;;;7.57;;
80175;SDS011;69501;42.124;24.722;2023-04-24T01:45:30;10.35;;;8.80;;
80175;SDS011;69501;42.124;24.722;2023-04-24T01:47:56;9.15;;;7.68;;
80175;SDS011;69501;42.124;24.722;2023-04-24T01:50:22;9.05;;;8.10;;
80175;SDS011;69501;42.124;24.722;2023-04-24T01:52:48;8.65;;;7.80;;
80175;SDS011;69501;42.124;24.722;2023-04-24T01:55:13;9.68;;;8.77;;
80175;SDS011;69501;42.124;24.722;2023-04-24T01:57:39;11.35;;;9.40;;
80175;SDS011;69501;42.124;24.722;2023-04-24T02:00:05;9.52;;;8.63;;
80175;SDS011;69501;42.124;24.722;2023-04-24T02:02:32;11.68;;;9.27;;
80175;SDS011;69501;42.124;24.722;2023-04-24T02:04:58;10.93;;;9.27;;
80175;SDS011;69501;42.124;24.722;2023-04-24T02:07:24;12.90;;;9.32;;
80175;SDS011;69501;42.124;24.722;2023-04-24T02:09:50;10.32;;;9.18;;
80175;SDS011;69501;42.124;24.722;2023-04-24T02:12:15;9.23;;;8.43;;
80175;SDS011;69501;42.124;24.722;2023-04-24T02:14:42;10.70;;;9.38;;
80175;SDS011;69501;42.124;24.722;2023-04-24T02:17:08;9.73;;;8.82;;
80175;SDS011;69501;42.124;24.722;2023-04-24T02:19:34;9.98;;;8.77;;
80175;SDS011;69501;42.124;24.722;2023-04-24T02:22:00;9.80;;;8.95;;
80175;SDS011;69501;42.124;24.722;2023-04-24T02:24:25;9.07;;;8.15;;
80175;SDS011;69501;42.124;24.722;2023-04-24T02:26:51;9.45;;;8.52;;
80175;SDS011;69501;42.124;24.722;2023-04-24T02:29:17;9.32;;;8.40;;
80175;SDS011;69501;42.124;24.722;2023-04-24T02:31:42;9.35;;;8.55;;
80175;SDS011;69501;42.124;24.722;2023-04-24T02:34:08;9.82;;;8.85;;
80175;SDS011;69501;42.124;24.722;2023-04-24T02:36:34;9.38;;;8.48;;
80175;SDS011;69501;42.124;24.722;2023-04-24T02:39:00;9.45;;;8.57;;
80175;SDS011;69501;42.124;24.722;2023-04-24T02:41:26;9.55;;;8.63;;
80175;SDS011;69501;42.124;24.722;2023-04-24T02:43:56;9.90;;;9.05;;
80175;SDS011;69501;42.124;24.722;2023-04-24T02:46:22;9.35;;;8.50;;
80175;SDS011;69501;42.124;24.722;2023-04-24T02:48:48;9.43;;;8.45;;
80175;SDS011;69501;42.124;24.722;2023-04-24T02:51:14;9.80;;;8.80;;
80175;SDS011;69501;42.124;24.722;2023-04-24T02:53:39;11.00;;;9.55;;
80175;SDS011;69501;42.124;24.722;2023-04-24T02:56:05;9.73;;;7.80;;
80175;SDS011;69501;42.124;24.722;2023-04-24T02:58:31;9.40;;;8.48;;
80175;SDS011;69501;42.124;24.722;2023-04-24T03:00:56;9.32;;;8.40;;
80175;SDS011;69501;42.124;24.722;2023-04-24T03:03:22;10.52;;;8.57;;
80175;SDS011;69501;42.124;24.722;2023-04-24T03:05:48;8.23;;;7.43;;
80175;SDS011;69501;42.124;24.722;2023-04-24T03:08:15;18.75;;;8.63;;
80175;SDS011;69501;42.124;24.722;2023-04-24T03:10:40;11.20;;;10.00;;
80175;SDS011;69501;42.124;24.722;2023-04-24T03:13:06;19.27;;;17.23;;
80175;SDS011;69501;42.124;24.722;2023-04-24T03:15:32;20.30;;;17.42;;
80175;SDS011;69501;42.124;24.722;2023-04-24T03:17:57;23.05;;;20.17;;
80175;SDS011;69501;42.124;24.722;2023-04-24T03:20:23;20.27;;;15.50;;
80175;SDS011;69501;42.124;24.722;2023-04-24T03:22:49;21.20;;;18.80;;
80175;SDS011;69501;42.124;24.722;2023-04-24T03:25:15;32.47;;;27.80;;
80175;SDS011;69501;42.124;24.722;2023-04-24T03:27:40;32.65;;;27.38;;
80175;SDS011;69501;42.124;24.722;2023-04-24T03:30:06;24.50;;;21.90;;
80175;SDS011;69501;42.124;24.722;2023-04-24T03:32:33;23.25;;;20.15;;
80175;SDS011;69501;42.124;24.722;2023-04-24T03:34:58;17.13;;;14.18;;
80175;SDS011;69501;42.124;24.722;2023-04-24T03:37:24;14.48;;;12.95;;
80175;SDS011;69501;42.124;24.722;2023-04-24T03:39:51;13.80;;;10.20;;
80175;SDS011;69501;42.124;24.722;2023-04-24T03:42:17;13.30;;;11.93;;
80175;SDS011;69501;42.124;24.722;2023-04-24T03:44:42;13.63;;;10.85;;
80175;SDS011;69501;42.124;24.722;2023-04-24T03:47:08;14.40;;;11.93;;
80175;SDS011;69501;42.124;24.722;2023-04-24T03:49:34;13.15;;;11.77;;
80175;SDS011;69501;42.124;24.722;2023-04-24T03:51:59;14.45;;;12.43;;
80175;SDS011;69501;42.124;24.722;2023-04-24T03:54:25;14.85;;;13.27;;
80175;SDS011;69501;42.124;24.722;2023-04-24T03:56:51;24.15;;;16.88;;
80175;SDS011;69501;42.124;24.722;2023-04-24T03:59:16;18.23;;;13.20;;
80175;SDS011;69501;42.124;24.722;2023-04-24T04:01:42;14.48;;;11.18;;
80175;SDS011;69501;42.124;24.722;2023-04-24T04:04:07;15.43;;;9.85;;
80175;SDS011;69501;42.124;24.722;2023-04-24T04:06:33;13.65;;;11.98;;
80175;SDS011;69501;42.124;24.722;2023-04-24T04:09:01;17.83;;;14.20;;
80175;SDS011;69501;42.124;24.722;2023-04-24T04:11:28;20.67;;;14.27;;
80175;SDS011;69501;42.124;24.722;2023-04-24T04:13:53;15.30;;;11.63;;
80175;SDS011;69501;42.124;24.722;2023-04-24T04:16:19;12.40;;;10.45;;
80175;SDS011;69501;42.124;24.722;2023-04-24T04:18:45;10.77;;;9.48;;
80175;SDS011;69501;42.124;24.722;2023-04-24T04:21:11;12.32;;;9.07;;
80175;SDS011;69501;42.124;24.722;2023-04-24T04:23:36;10.50;;;9.35;;
80175;SDS011;69501;42.124;24.722;2023-04-24T04:26:02;11.18;;;8.93;;
80175;SDS011;69501;42.124;24.722;2023-04-24T04:28:28;14.23;;;9.05;;
80175;SDS011;69501;42.124;24.722;2023-04-24T04:30:56;19.63;;;9.60;;
80175;SDS011;69501;42.124;24.722;2023-04-24T04:33:23;16.05;;;9.68;;
80175;SDS011;69501;42.124;24.722;2023-04-24T04:35:49;16.17;;;11.10;;
80175;SDS011;69501;42.124;24.722;2023-04-24T04:38:17;11.15;;;9.18;;
80175;SDS011;69501;42.124;24.722;2023-04-24T04:40:45;15.57;;;7.65;;
80175;SDS011;69501;42.124;24.722;2023-04-24T04:43:11;10.02;;;7.55;;
80175;SDS011;69501;42.124;24.722;2023-04-24T04:45:39;164.02;;;104.70;;
80175;SDS011;69501;42.124;24.722;2023-04-24T04:48:07;436.55;;;289.73;;
80175;SDS011;69501;42.124;24.722;2023-04-24T04:50:34;399.25;;;259.98;;
80175;SDS011;69501;42.124;24.722;2023-04-24T04:53:00;100.32;;;68.13;;
80175;SDS011;69501;42.124;24.722;2023-04-24T04:55:26;39.45;;;25.80;;
80175;SDS011;69501;42.124;24.722;2023-04-24T04:57:51;19.15;;;13.15;;
80175;SDS011;69501;42.124;24.722;2023-04-24T05:00:17;11.73;;;10.07;;
80175;SDS011;69501;42.124;24.722;2023-04-24T05:02:44;13.98;;;10.27;;
80175;SDS011;69501;42.124;24.722;2023-04-24T05:05:10;15.45;;;8.95;;
80175;SDS011;69501;42.124;24.722;2023-04-24T05:07:35;17.52;;;9.73;;
80175;SDS011;69501;42.124;24.722;2023-04-24T05:10:01;10.80;;;9.68;;
80175;SDS011;69501;42.124;24.722;2023-04-24T05:12:27;11.43;;;8.85;;
80175;SDS011;69501;42.124;24.722;2023-04-24T05:14:53;13.00;;;9.18;;
80175;SDS011;69501;42.124;24.722;2023-04-24T05:17:19;12.27;;;8.55;;
80175;SDS011;69501;42.124;24.722;2023-04-24T05:19:44;11.48;;;8.95;;
80175;SDS011;69501;42.124;24.722;2023-04-24T05:22:11;11.45;;;9.02;;
80175;SDS011;69501;42.124;24.722;2023-04-24T05:24:37;12.05;;;8.75;;
80175;SDS011;69501;42.124;24.722;2023-04-24T05:27:03;13.40;;;9.20;;
80175;SDS011;69501;42.124;24.722;2023-04-24T05:29:30;10.70;;;9.57;;
80175;SDS011;69501;42.124;24.722;2023-04-24T05:31:56;10.63;;;9.52;;
80175;SDS011;69501;42.124;24.722;2023-04-24T05:34:22;14.00;;;9.05;;
80175;SDS011;69501;42.124;24.722;2023-04-24T05:36:48;11.20;;;9.48;;
80175;SDS011;69501;42.124;24.722;2023-04-24T05:39:15;12.30;;;9.45;;
80175;SDS011;69501;42.124;24.722;2023-04-24T05:41:41;10.65;;;8.68;;
80175;SDS011;69501;42.124;24.722;2023-04-24T05:44:06;11.68;;;8.75;;
80175;SDS011;69501;42.124;24.722;2023-04-24T05:46:32;10.88;;;8.20;;
80175;SDS011;69501;42.124;24.722;2023-04-24T05:48:58;12.05;;;8.57;;
80175;SDS011;69501;42.124;24.722;2023-04-24T05:51:23;11.07;;;8.38;;
80175;SDS011;69501;42.124;24.722;2023-04-24T05:53:49;14.88;;;7.85;;
80175;SDS011;69501;42.124;24.722;2023-04-24T05:56:15;11.15;;;8.45;;
80175;SDS011;69501;42.124;24.722;2023-04-24T05:58:41;15.15;;;9.02;;
80175;SDS011;69501;42.124;24.722;2023-04-24T06:01:07;13.57;;;8.80;;
80175;SDS011;69501;42.124;24.722;2023-04-24T06:03:32;19.75;;;10.02;;
80175;SDS011;69501;42.124;24.722;2023-04-24T06:05:58;14.50;;;8.48;;
80175;SDS011;69501;42.124;24.722;2023-04-24T06:08:24;16.98;;;9.15;;
80175;SDS011;69501;42.124;24.722;2023-04-24T06:10:50;417.38;;;298.25;;
80175;SDS011;69501;42.124;24.722;2023-04-24T06:13:16;263.33;;;169.73;;
80175;SDS011;69501;42.124;24.722;2023-04-24T06:15:43;45.63;;;33.97;;
80175;SDS011;69501;42.124;24.722;2023-04-24T06:18:09;17.63;;;12.68;;
80175;SDS011;69501;42.124;24.722;2023-04-24T06:20:38;11.00;;;9.80;;
80175;SDS011;69501;42.124;24.722;2023-04-24T06:23:04;11.80;;;9.23;;
80175;SDS011;69501;42.124;24.722;2023-04-24T06:25:29;14.95;;;9.20;;
80175;SDS011;69501;42.124;24.722;2023-04-24T06:27:55;12.30;;;8.98;;
80175;SDS011;69501;42.124;24.722;2023-04-24T06:30:21;16.48;;;8.77;;
80175;SDS011;69501;42.124;24.722;2023-04-24T06:32:47;11.93;;;9.38;;
80175;SDS011;69501;42.124;24.722;2023-04-24T06:35:13;13.18;;;9.27;;
80175;SDS011;69501;42.124;24.722;2023-04-24T06:37:39;14.82;;;8.93;;
80175;SDS011;69501;42.124;24.722;2023-04-24T06:40:06;12.75;;;8.90;;
80175;SDS011;69501;42.124;24.722;2023-04-24T06:42:33;12.82;;;9.15;;
80175;SDS011;69501;42.124;24.722;2023-04-24T06:44:59;14.75;;;8.10;;
80175;SDS011;69501;42.124;24.722;2023-04-24T06:47:25;13.68;;;8.10;;
80175;SDS011;69501;42.124;24.722;2023-04-24T06:49:51;9.00;;;6.97;;
80175;SDS011;69501;42.124;24.722;2023-04-24T06:52:17;13.20;;;8.48;;
80175;SDS011;69501;42.124;24.722;2023-04-24T06:54:43;9.20;;;7.15;;
80175;SDS011;69501;42.124;24.722;2023-04-24T06:57:09;8.23;;;6.43;;
80175;SDS011;69501;42.124;24.722;2023-04-24T06:59:35;8.23;;;6.95;;
80175;SDS011;69501;42.124;24.722;2023-04-24T07:02:01;9.40;;;6.35;;
80175;SDS011;69501;42.124;24.722;2023-04-24T07:04:28;11.10;;;6.75;;
80175;SDS011;69501;42.124;24.722;2023-04-24T07:06:54;9.55;;;6.60;;
80175;SDS011;69501;42.124;24.722;2023-04-24T07:09:21;9.10;;;7.95;;
80175;SDS011;69501;42.124;24.722;2023-04-24T07:11:50;11.73;;;7.30;;
80175;SDS011;69501;42.124;24.722;2023-04-24T07:14:16;11.70;;;6.43;;
80175;SDS011;69501;42.124;24.722;2023-04-24T07:16:42;9.05;;;6.68;;
80175;SDS011;69501;42.124;24.722;2023-04-24T07:19:08;11.10;;;7.18;;
80175;SDS011;69501;42.124;24.722;2023-04-24T07:21:34;7.32;;;6.20;;
80175;SDS011;69501;42.124;24.722;2023-04-24T07:24:00;8.27;;;5.97;;
80175;SDS011;69501;42.124;24.722;2023-04-24T07:26:27;6.93;;;6.20;;
80175;SDS011;69501;42.124;24.722;2023-04-24T07:28:54;9.48;;;6.60;;
80175;SDS011;69501;42.124;24.722;2023-04-24T07:31:20;11.27;;;6.25;;
80175;SDS011;69501;42.124;24.722;2023-04-24T07:33:46;9.75;;;7.03;;
80175;SDS011;69501;42.124;24.722;2023-04-24T07:36:12;9.95;;;7.00;;
80175;SDS011;69501;42.124;24.722;2023-04-24T07:38:42;8.95;;;5.18;;
80175;SDS011;69501;42.124;24.722;2023-04-24T07:41:07;9.25;;;6.78;;
80175;SDS011;69501;42.124;24.722;2023-04-24T07:43:33;6.10;;;5.50;;
80175;SDS011;69501;42.124;24.722;2023-04-24T07:45:59;6.38;;;5.25;;
80175;SDS011;69501;42.124;24.722;2023-04-24T07:48:25;9.90;;;6.40;;
80175;SDS011;69501;42.124;24.722;2023-04-24T07:50:51;7.25;;;6.00;;
80175;SDS011;69501;42.124;24.722;2023-04-24T07:53:17;10.10;;;5.95;;
80175;SDS011;69501;42.124;24.722;2023-04-24T07:55:43;6.22;;;5.72;;
80175;SDS011;69501;42.124;24.722;2023-04-24T07:58:09;11.07;;;6.13;;
80175;SDS011;69501;42.124;24.722;2023-04-24T08:00:34;7.90;;;7.15;;
80175;SDS011;69501;42.124;24.722;2023-04-24T08:03:00;6.20;;;5.70;;
80175;SDS011;69501;42.124;24.722;2023-04-24T08:05:26;6.30;;;5.57;;
80175;SDS011;69501;42.124;24.722;2023-04-24T08:07:53;9.68;;;5.60;;
80175;SDS011;69501;42.124;24.722;2023-04-24T08:10:20;9.27;;;6.45;;
80175;SDS011;69501;42.124;24.722;2023-04-24T08:12:50;7.57;;;6.60;;
80175;SDS011;69501;42.124;24.722;2023-04-24T08:15:16;7.40;;;5.63;;
80175;SDS011;69501;42.124;24.722;2023-04-24T08:17:42;8.60;;;5.57;;
80175;SDS011;69501;42.124;24.722;2023-04-24T08:20:08;6.88;;;5.47;;
80175;SDS011;69501;42.124;24.722;2023-04-24T08:22:38;10.65;;;6.38;;
80175;SDS011;69501;42.124;24.722;2023-04-24T08:25:05;8.80;;;5.47;;
80175;SDS011;69501;42.124;24.722;2023-04-24T08:27:31;8.45;;;5.47;;
80175;SDS011;69501;42.124;24.722;2023-04-24T08:29:57;9.25;;;5.32;;
80175;SDS011;69501;42.124;24.722;2023-04-24T08:32:23;7.28;;;6.07;;
80175;SDS011;69501;42.124;24.722;2023-04-24T08:34:49;6.72;;;6.03;;
80175;SDS011;69501;42.124;24.722;2023-04-24T08:37:17;8.15;;;6.43;;
80175;SDS011;69501;42.124;24.722;2023-04-24T08:39:43;8.75;;;6.20;;
80175;SDS011;69501;42.124;24.722;2023-04-24T08:42:09;7.03;;;6.25;;
80175;SDS011;69501;42.124;24.722;2023-04-24T08:44:36;8.70;;;6.80;;
80175;SDS011;69501;42.124;24.722;2023-04-24T08:47:02;11.02;;;8.65;;
80175;SDS011;69501;42.124;24.722;2023-04-24T08:49:28;8.93;;;7.43;;
80175;SDS011;69501;42.124;24.722;2023-04-24T08:51:54;7.25;;;6.55;;
80175;SDS011;69501;42.124;24.722;2023-04-24T08:54:20;7.60;;;6.40;;
80175;SDS011;69501;42.124;24.722;2023-04-24T08:56:46;10.43;;;7.90;;
80175;SDS011;69501;42.124;24.722;2023-04-24T08:59:14;14.35;;;7.78;;
80175;SDS011;69501;42.124;24.722;2023-04-24T09:01:40;8.43;;;6.93;;
80175;SDS011;69501;42.124;24.722;2023-04-24T09:04:08;9.60;;;5.55;;
80175;SDS011;69501;42.124;24.722;2023-04-24T09:06:35;7.93;;;6.38;;
80175;SDS011;69501;42.124;24.722;2023-04-24T09:09:01;7.38;;;5.60;;
80175;SDS011;69501;42.124;24.722;2023-04-24T09:11:29;10.57;;;6.45;;
80175;SDS011;69501;42.124;24.722;2023-04-24T09:13:56;7.63;;;5.78;;
80175;SDS011;69501;42.124;24.722;2023-04-24T09:16:22;11.80;;;7.47;;
80175;SDS011;69501;42.124;24.722;2023-04-24T09:18:50;8.13;;;6.93;;
80175;SDS011;69501;42.124;24.722;2023-04-24T09:21:16;9.98;;;7.40;;
80175;SDS011;69501;42.124;24.722;2023-04-24T09:23:42;8.18;;;7.00;;
80175;SDS011;69501;42.124;24.722;2023-04-24T09:26:08;6.25;;;5.70;;
80175;SDS011;69501;42.124;24.722;2023-04-24T09:28:36;16.25;;;11.82;;
80175;SDS011;69501;42.124;24.722;2023-04-24T09:33:31;8.05;;;5.65;;
80175;SDS011;69501;42.124;24.722;2023-04-24T09:35:57;7.75;;;5.75;;
80175;SDS011;69501;42.124;24.722;2023-04-24T09:38:34;9.05;;;5.88;;
80175;SDS011;69501;42.124;24.722;2023-04-24T09:41:04;6.05;;;5.45;;
80175;SDS011;69501;42.124;24.722;2023-04-24T09:43:31;8.18;;;7.30;;
80175;SDS011;69501;42.124;24.722;2023-04-24T09:45:58;8.13;;;5.65;;
80175;SDS011;69501;42.124;24.722;2023-04-24T09:48:31;8.80;;;5.43;;
80175;SDS011;69501;42.124;24.722;2023-04-24T09:51:03;6.65;;;5.25;;
80175;SDS011;69501;42.124;24.722;2023-04-24T09:53:32;6.80;;;5.30;;
80175;SDS011;69501;42.124;24.722;2023-04-24T09:56:07;6.13;;;5.30;;
80175;SDS011;69501;42.124;24.722;2023-04-24T09:58:34;6.70;;;5.20;;
80175;SDS011;69501;42.124;24.722;2023-04-24T10:01:01;7.00;;;6.30;;
80175;SDS011;69501;42.124;24.722;2023-04-24T10:03:29;5.93;;;5.50;;
80175;SDS011;69501;42.124;24.722;2023-04-24T10:05:59;6.85;;;5.40;;
80175;SDS011;69501;42.124;24.722;2023-04-24T10:08:26;7.03;;;5.53;;
80175;SDS011;69501;42.124;24.722;2023-04-24T10:10:57;7.05;;;5.35;;
80175;SDS011;69501;42.124;24.722;2023-04-24T10:13:22;7.47;;;5.57;;
80175;SDS011;69501;42.124;24.722;2023-04-24T10:15:48;6.65;;;5.72;;
80175;SDS011;69501;42.124;24.722;2023-04-24T10:18:15;6.47;;;5.88;;
80175;SDS011;69501;42.124;24.722;2023-04-24T10:20:41;6.03;;;5.35;;
80175;SDS011;69501;42.124;24.722;2023-04-24T10:23:07;6.57;;;5.90;;
80175;SDS011;69501;42.124;24.722;2023-04-24T10:25:33;7.57;;;5.43;;
80175;SDS011;69501;42.124;24.722;2023-04-24T10:28:00;6.47;;;5.40;;
80175;SDS011;69501;42.124;24.722;2023-04-24T10:30:27;6.38;;;5.57;;
80175;SDS011;69501;42.124;24.722;2023-04-24T10:33:04;6.38;;;5.65;;
80175;SDS011;69501;42.124;24.722;2023-04-24T10:35:32;7.57;;;5.45;;
80175;SDS011;69501;42.124;24.722;2023-04-24T10:40:31;5.65;;;5.13;;
80175;SDS011;69501;42.124;24.722;2023-04-24T10:42:58;10.20;;;5.90;;
80175;SDS011;69501;42.124;24.722;2023-04-24T10:45:26;6.20;;;5.60;;
80175;SDS011;69501;42.124;24.722;2023-04-24T10:50:22;7.13;;;5.70;;
80175;SDS011;69501;42.124;24.722;2023-04-24T10:52:48;10.60;;;5.75;;
80175;SDS011;69501;42.124;24.722;2023-04-24T10:58:07;5.90;;;5.40;;
80175;SDS011;69501;42.124;24.722;2023-04-24T11:00:33;6.75;;;5.60;;
80175;SDS011;69501;42.124;24.722;2023-04-24T11:03:04;6.78;;;5.43;;
80175;SDS011;69501;42.124;24.722;2023-04-24T11:05:49;5.82;;;5.28;;
80175;SDS011;69501;42.124;24.722;2023-04-24T11:08:21;6.80;;;5.72;;
80175;SDS011;69501;42.124;24.722;2023-04-24T11:10:58;5.33;;;4.80;;
80175;SDS011;69501;42.124;24.722;2023-04-24T11:13:26;8.05;;;5.40;;
80175;SDS011;69501;42.124;24.722;2023-04-24T11:18:39;8.65;;;4.90;;
80175;SDS011;69501;42.124;24.722;2023-04-24T11:21:13;8.25;;;4.95;;
80175;SDS011;69501;42.124;24.722;2023-04-24T11:23:42;4.67;;;4.27;;
80175;SDS011;69501;42.124;24.722;2023-04-24T11:26:11;4.93;;;4.45;;
80175;SDS011;69501;42.124;24.722;2023-04-24T11:28:49;5.25;;;4.75;;
80175;SDS011;69501;42.124;24.722;2023-04-24T11:34:22;5.05;;;4.60;;
80175;SDS011;69501;42.124;24.722;2023-04-24T11:36:48;5.63;;;4.80;;
80175;SDS011;69501;42.124;24.722;2023-04-24T11:39:14;5.95;;;4.60;;
80175;SDS011;69501;42.124;24.722;2023-04-24T11:41:40;7.70;;;4.68;;
80175;SDS011;69501;42.124;24.722;2023-04-24T11:44:06;5.22;;;4.53;;
80175;SDS011;69501;42.124;24.722;2023-04-24T11:46:32;7.65;;;4.90;;
80175;SDS011;69501;42.124;24.722;2023-04-24T11:48:58;6.88;;;4.50;;
80175;SDS011;69501;42.124;24.722;2023-04-24T11:51:26;6.50;;;4.10;;
80175;SDS011;69501;42.124;24.722;2023-04-24T11:53:53;5.00;;;3.97;;
80175;SDS011;69501;42.124;24.722;2023-04-24T11:56:23;6.00;;;4.45;;
80175;SDS011;69501;42.124;24.722;2023-04-24T11:58:53;5.80;;;4.30;;
80175;SDS011;69501;42.124;24.722;2023-04-24T12:01:21;5.65;;;4.22;;
80175;SDS011;69501;42.124;24.722;2023-04-24T12:03:48;4.38;;;3.97;;
80175;SDS011;69501;42.124;24.722;2023-04-24T12:06:16;9.25;;;4.72;;
80175;SDS011;69501;42.124;24.722;2023-04-24T12:08:52;4.25;;;3.85;;
80175;SDS011;69501;42.124;24.722;2023-04-24T12:11:20;4.55;;;4.15;;
80175;SDS011;69501;42.124;24.722;2023-04-24T12:13:45;12.00;;;4.72;;
80175;SDS011;69501;42.124;24.722;2023-04-24T12:16:11;5.93;;;3.75;;
80175;SDS011;69501;42.124;24.722;2023-04-24T12:18:41;5.97;;;3.83;;
80175;SDS011;69501;42.124;24.722;2023-04-24T12:21:16;6.38;;;4.00;;
80175;SDS011;69501;42.124;24.722;2023-04-24T12:23:45;5.90;;;3.90;;
80175;SDS011;69501;42.124;24.722;2023-04-24T12:26:12;4.13;;;3.67;;
80175;SDS011;69501;42.124;24.722;2023-04-24T12:28:46;4.28;;;3.47;;
80175;SDS011;69501;42.124;24.722;2023-04-24T12:31:13;4.35;;;3.78;;
80175;SDS011;69501;42.124;24.722;2023-04-24T12:33:40;5.43;;;3.95;;
80175;SDS011;69501;42.124;24.722;2023-04-24T12:36:06;5.78;;;3.45;;
80175;SDS011;69501;42.124;24.722;2023-04-24T12:38:36;6.03;;;3.45;;
80175;SDS011;69501;42.124;24.722;2023-04-24T12:41:06;5.40;;;3.45;;
80175;SDS011;69501;42.124;24.722;2023-04-24T12:43:34;7.00;;;3.53;;
80175;SDS011;69501;42.124;24.722;2023-04-24T12:46:00;4.53;;;3.70;;
80175;SDS011;69501;42.124;24.722;2023-04-24T12:48:26;10.30;;;3.83;;
80175;SDS011;69501;42.124;24.722;2023-04-24T12:50:52;7.85;;;3.63;;
80175;SDS011;69501;42.124;24.722;2023-04-24T12:53:18;4.65;;;3.40;;
80175;SDS011;69501;42.124;24.722;2023-04-24T12:55:44;7.80;;;3.63;;
80175;SDS011;69501;42.124;24.722;2023-04-24T12:58:11;4.30;;;3.35;;
80175;SDS011;69501;42.124;24.722;2023-04-24T13:00:38;5.65;;;3.50;;
80175;SDS011;69501;42.124;24.722;2023-04-24T13:03:08;3.40;;;2.97;;
80175;SDS011;69501;42.124;24.722;2023-04-24T13:05:34;3.75;;;3.35;;
80175;SDS011;69501;42.124;24.722;2023-04-24T13:08:00;4.30;;;3.45;;
80175;SDS011;69501;42.124;24.722;2023-04-24T13:10:25;4.18;;;3.78;;
80175;SDS011;69501;42.124;24.722;2023-04-24T13:12:51;6.40;;;3.22;;
80175;SDS011;69501;42.124;24.722;2023-04-24T13:15:17;3.95;;;3.20;;
80175;SDS011;69501;42.124;24.722;2023-04-24T13:17:43;4.25;;;3.80;;
80175;SDS011;69501;42.124;24.722;2023-04-24T13:20:08;3.55;;;3.25;;
80175;SDS011;69501;42.124;24.722;2023-04-24T13:22:35;5.18;;;3.00;;
80175;SDS011;69501;42.124;24.722;2023-04-24T13:25:01;3.58;;;3.28;;
80175;SDS011;69501;42.124;24.722;2023-04-24T13:27:27;3.58;;;3.28;;
80175;SDS011;69501;42.124;24.722;2023-04-24T13:29:52;4.57;;;3.17;;
80175;SDS011;69501;42.124;24.722;2023-04-24T13:32:18;3.85;;;3.10;;
80175;SDS011;69501;42.124;24.722;2023-04-24T13:34:44;3.50;;;3.20;;
80175;SDS011;69501;42.124;24.722;2023-04-24T13:37:11;3.22;;;2.92;;
80175;SDS011;69501;42.124;24.722;2023-04-24T13:39:36;4.28;;;3.70;;
80175;SDS011;69501;42.124;24.722;2023-04-24T13:42:02;6.95;;;3.20;;
80175;SDS011;69501;42.124;24.722;2023-04-24T13:44:28;4.32;;;3.00;;
80175;SDS011;69501;42.124;24.722;2023-04-24T13:46:54;3.20;;;2.90;;
80175;SDS011;69501;42.124;24.722;2023-04-24T13:49:22;7.05;;;3.00;;
80175;SDS011;69501;42.124;24.722;2023-04-24T13:51:50;5.07;;;3.15;;
80175;SDS011;69501;42.124;24.722;2023-04-24T13:54:17;4.60;;;3.00;;
80175;SDS011;69501;42.124;24.722;2023-04-24T13:56:42;4.03;;;3.05;;
80175;SDS011;69501;42.124;24.722;2023-04-24T13:59:08;3.95;;;3.60;;
80175;SDS011;69501;42.124;24.722;2023-04-24T14:01:34;4.60;;;3.20;;
80175;SDS011;69501;42.124;24.722;2023-04-24T14:04:00;4.10;;;3.20;;
80175;SDS011;69501;42.124;24.722;2023-04-24T14:06:25;3.25;;;2.88;;
80175;SDS011;69501;42.124;24.722;2023-04-24T14:08:51;3.20;;;3.00;;
80175;SDS011;69501;42.124;24.722;2023-04-24T14:11:17;7.80;;;2.95;;
80175;SDS011;69501;42.124;24.722;2023-04-24T14:13:44;3.25;;;2.83;;
80175;SDS011;69501;42.124;24.722;2023-04-24T14:16:10;6.30;;;3.00;;
80175;SDS011;69501;42.124;24.722;2023-04-24T14:18:36;6.40;;;3.33;;
80175;SDS011;69501;42.124;24.722;2023-04-24T14:21:02;6.13;;;3.20;;
80175;SDS011;69501;42.124;24.722;2023-04-24T14:23:29;3.38;;;3.17;;
80175;SDS011;69501;42.124;24.722;2023-04-24T14:25:55;4.63;;;3.22;;
80175;SDS011;69501;42.124;24.722;2023-04-24T14:28:21;4.88;;;3.30;;
80175;SDS011;69501;42.124;24.722;2023-04-24T14:30:47;4.65;;;3.10;;
80175;SDS011;69501;42.124;24.722;2023-04-24T14:33:13;7.07;;;3.30;;
80175;SDS011;69501;42.124;24.722;2023-04-24T14:35:39;6.20;;;3.30;;
80175;SDS011;69501;42.124;24.722;2023-04-24T14:38:14;4.90;;;3.20;;
80175;SDS011;69501;42.124;24.722;2023-04-24T14:40:50;3.13;;;2.83;;